Lahaina, HI (96761)

9:16 AM HST on August 30, 2014 (GMT -1000)
Launiupoko | Change Station
CLOSE
Current Station
Personal Weather Station
Location: Lahaina, HI
Elevation: 801 ft
Nearby Weather Stations
Active Advisory: High Surf Advisory

Elev 801 ft 20.86 °N, 156.64 °W | Updated 1 minute ago

Partly Cloudy
Partly Cloudy
80.5 °F
Feels Like 83 °F
N
3.0
Wind Variable Wind from West
Gusts 8.0 mph

Today
High -- | Low -- °F
--% Chance of Precip.
Yesterday
High -- | Low -- °F
Precip. -- in
6:10 AM 6:44 PM
Waxing Crescent, 24% visible
Pressure 29.97 in
Visibility 15.0 miles
Clouds Few 2500 ft
Few 4000 ft
Heat Index 83 °F
Dew Point 69 °F
Humidity 68%
Rainfall 0.00 in
Snow Depth Not available.
UV 4 out of 12
Pollen Not available.
Air Quality Not available.
Flu Activity Not available.
METAR PHJH 301845Z 03012KT 15SM FEW025 FEW040 28/19 A2997

More Conditions Fewer Conditions

Pressure 29.97 in
Visibility 15.0 miles
Clouds Few 2500 ft
Few 4000 ft
Heat Index 83 °F
Dew Point 69 °F
Humidity 68%
Rainfall 0.00 in
Snow Depth Not available.
UV 4 out of 12
Pollen Not available.
Air Quality Not available.
Flu Activity Not available.
METAR PHJH 301845Z 03012KT 15SM FEW025 FEW040 28/19 A2997

More Conditions Fewer Conditions

10-Day Weather Forecast

Almanac

Astronomy

Aug. 30, 2014 Rise Set
Actual Time 6:10 AM HST 6:44 PM HST
Civil Twilight 5:47 AM HST 7:06 PM HST
Nautical Twilight 5:21 AM HST 7:32 PM HST
Astronomical Twilight 4:54 AM HST 7:59 PM HST
Moon 10:27 AM HST 10:08 PM HST
Length of Visible Light 13h 19m
Length of Day
12h 34m
Tomorrow will be 1m 9s shorter.
Waxing Crescent, 24% of the Moon is Illuminated
Today
Waxing Crescent
Sep 2
First Quarter
Sep 8
Full
Sep 15
Last Quarter
Sep 24
New

Today's Extremes

State Highs State Lows

Community

WunderPhotos

Upload Photos

1,748,596 photos uploaded!

WunderBlogs® & News

Nearby

Snow Depth

Station Depth Elevation
No new snow has been reported.

Earthquake Activity

City Distance Mag. Time & Date
No recent earthquake activity has been reported nearby.
Minimum magnitude displayed is 2.5.

Coastal Water Temperatures

Place Temperature
No Stations Reporting

Nearby Weather Stations